createdAt,value
2022-12-11T00:00:42.097Z,36.15
2022-12-11T00:03:14.135Z,36.08
2022-12-11T00:05:42.434Z,35.40
2022-12-11T00:08:09.190Z,33.92
2022-12-11T00:10:37.913Z,36.00
2022-12-11T00:13:05.468Z,33.63
2022-12-11T00:15:35.043Z,35.72
2022-12-11T00:18:10.745Z,33.45
2022-12-11T00:20:38.104Z,32.47
2022-12-11T00:23:06.037Z,35.72
2022-12-11T00:25:32.796Z,36.33
2022-12-11T00:27:59.482Z,35.75
2022-12-11T00:30:27.694Z,33.67
2022-12-11T00:32:54.507Z,34.67
2022-12-11T00:35:22.921Z,33.78
2022-12-11T00:37:49.612Z,35.13
2022-12-11T00:40:17.827Z,35.42
2022-12-11T00:42:44.423Z,28.15
2022-12-11T00:45:14.973Z,29.60
2022-12-11T00:47:44.982Z,33.78
2022-12-11T00:50:11.605Z,31.52
2022-12-11T00:52:38.581Z,32.80
2022-12-11T00:55:05.548Z,31.02
2022-12-11T00:57:32.221Z,30.92
2022-12-11T00:59:59.114Z,33.67
2022-12-11T01:02:25.752Z,28.88
2022-12-11T01:04:52.358Z,30.15
2022-12-11T01:07:18.958Z,28.98
2022-12-11T01:09:45.602Z,27.92
2022-12-11T01:12:12.306Z,29.92
2022-12-11T01:14:38.962Z,28.17
2022-12-11T01:17:05.643Z,28.52
2022-12-11T01:19:32.314Z,29.77
2022-12-11T01:21:58.989Z,27.73
2022-12-11T01:24:25.720Z,26.70
2022-12-11T01:26:53.022Z,24.38
2022-12-11T01:29:19.707Z,25.50
2022-12-11T01:31:46.460Z,26.77
2022-12-11T01:34:13.087Z,26.95
2022-12-11T01:36:39.705Z,27.65
2022-12-11T01:39:06.383Z,28.30
2022-12-11T01:41:33.313Z,28.75
2022-12-11T01:44:08.023Z,26.60
2022-12-11T01:46:36.665Z,26.85
2022-12-11T01:49:07.371Z,26.65
2022-12-11T01:51:41.023Z,26.27
2022-12-11T01:54:13.447Z,25.50
2022-12-11T01:56:42.706Z,24.70
2022-12-11T01:59:11.032Z,28.17
2022-12-11T02:04:15.682Z,28.00
2022-12-11T02:06:45.883Z,26.75
2022-12-11T02:09:16.395Z,30.00
2022-12-11T02:12:01.318Z,28.27
2022-12-11T02:17:18.348Z,26.77
2022-12-11T02:20:07.907Z,27.10
2022-12-11T02:23:09.008Z,29.08
2022-12-11T02:25:35.649Z,26.88
2022-12-11T02:28:14.269Z,28.13
2022-12-11T02:30:42.921Z,29.30
2022-12-11T02:33:13.876Z,33.33
2022-12-11T02:35:45.902Z,31.13
2022-12-11T02:38:22.700Z,29.92
2022-12-11T02:40:52.066Z,29.05
2022-12-11T02:43:20.343Z,32.17
2022-12-11T02:45:47.247Z,29.88
2022-12-11T02:48:15.150Z,30.55
2022-12-11T02:50:48.805Z,26.92
2022-12-11T02:53:21.146Z,30.40
2022-12-11T02:55:52.285Z,28.50
2022-12-11T02:58:24.233Z,29.75
2022-12-11T03:00:51.243Z,32.13
2022-12-11T03:03:18.082Z,28.65
2022-12-11T03:05:44.913Z,30.85
2022-12-11T03:08:14.838Z,33.30
2022-12-11T03:10:45.822Z,30.15
2022-12-11T03:13:15.238Z,30.52
2022-12-11T03:15:47.464Z,34.33
2022-12-11T03:18:37.087Z,30.80
2022-12-11T03:21:09.600Z,29.15
2022-12-11T03:24:21.098Z,34.30
2022-12-11T03:27:00.981Z,29.92
2022-12-11T03:30:13.542Z,30.83
2022-12-11T03:32:48.095Z,31.80
2022-12-11T03:37:50.442Z,29.05
2022-12-11T03:40:20.058Z,30.58
2022-12-11T03:42:50.565Z,32.95
2022-12-11T03:45:19.371Z,29.90
2022-12-11T03:47:46.326Z,29.17
2022-12-11T03:50:16.116Z,28.20
2022-12-11T03:52:46.116Z,27.58
2022-12-11T03:55:16.195Z,28.42
2022-12-11T03:57:43.151Z,27.80
2022-12-11T04:00:20.386Z,28.20
2022-12-11T04:02:47.646Z,29.90
2022-12-11T04:05:17.539Z,30.25
2022-12-11T04:07:45.129Z,28.63
2022-12-11T04:10:11.850Z,29.30
2022-12-11T04:12:38.548Z,30.15
2022-12-11T04:15:05.537Z,30.90
2022-12-11T04:17:37.194Z,29.17
2022-12-11T04:20:06.147Z,24.80
2022-12-11T04:22:32.752Z,26.00
2022-12-11T04:25:00.754Z,29.13
2022-12-11T04:27:29.197Z,27.50
2022-12-11T04:29:55.981Z,26.23
2022-12-11T04:32:22.550Z,22.05
2022-12-11T04:34:49.188Z,20.65
2022-12-11T04:37:15.802Z,21.05
2022-12-11T04:39:44.131Z,19.63
2022-12-11T04:42:10.802Z,20.15
2022-12-11T04:44:37.479Z,19.05
2022-12-11T04:47:04.343Z,17.48
2022-12-11T04:49:30.955Z,20.80
2022-12-11T04:51:57.703Z,20.20
2022-12-11T04:54:24.409Z,21.27
2022-12-11T04:56:51.057Z,20.52
2022-12-11T04:59:17.738Z,21.92
2022-12-11T05:01:45.164Z,21.65
2022-12-11T05:04:11.858Z,25.00
2022-12-11T05:06:39.168Z,23.27
2022-12-11T05:09:08.071Z,22.10
2022-12-11T05:11:36.256Z,24.13
2022-12-11T05:14:02.915Z,21.77
2022-12-11T05:16:29.567Z,20.75
2022-12-11T05:18:56.267Z,21.55
2022-12-11T05:21:22.927Z,23.45
2022-12-11T05:23:49.804Z,22.00
2022-12-11T05:26:19.980Z,26.83
2022-12-11T05:28:50.786Z,21.67
2022-12-11T05:31:20.513Z,23.77
2022-12-11T05:33:48.063Z,21.25
2022-12-11T05:36:22.287Z,21.42
2022-12-11T05:38:49.871Z,21.88
2022-12-11T05:41:19.752Z,21.77
2022-12-11T05:43:46.940Z,20.92
2022-12-11T05:46:16.817Z,19.95
2022-12-11T05:48:46.299Z,18.73
2022-12-11T05:51:14.129Z,20.42
2022-12-11T05:53:42.263Z,18.42
2022-12-11T05:56:19.189Z,19.77
2022-12-11T05:58:50.699Z,21.00
2022-12-11T06:01:28.287Z,20.17
2022-12-11T06:03:56.123Z,19.95
2022-12-11T06:06:23.362Z,23.60
2022-12-11T06:08:51.329Z,20.48
2022-12-11T06:11:23.578Z,20.85
2022-12-11T06:13:51.019Z,21.55
2022-12-11T06:16:18.084Z,22.58
2022-12-11T06:18:48.248Z,22.65
2022-12-11T06:21:25.401Z,20.63
2022-12-11T06:23:53.850Z,22.02
2022-12-11T06:26:20.720Z,23.75
2022-12-11T06:28:48.763Z,24.35
2022-12-11T06:31:15.785Z,28.40
2022-12-11T06:33:45.724Z,29.10
2022-12-11T06:36:16.148Z,27.58
2022-12-11T06:38:43.413Z,27.83
2022-12-11T06:41:10.603Z,29.88
2022-12-11T06:43:40.092Z,29.35
2022-12-11T06:46:13.401Z,26.95
2022-12-11T06:49:01.838Z,29.65
2022-12-11T06:51:29.403Z,31.38
2022-12-11T06:56:46.094Z,31.60
2022-12-11T06:59:12.738Z,31.83
2022-12-11T07:01:40.259Z,33.35
2022-12-11T07:04:06.844Z,34.67
2022-12-11T07:06:33.594Z,36.50
2022-12-11T07:09:00.197Z,35.00
2022-12-11T07:11:26.962Z,34.85
2022-12-11T07:13:53.615Z,35.80
2022-12-11T07:16:21.164Z,36.13
2022-12-11T07:18:50.125Z,35.72
2022-12-11T07:21:20.147Z,34.83
2022-12-11T07:23:47.130Z,36.28
2022-12-11T07:26:16.501Z,34.10
2022-12-11T07:28:43.793Z,38.35
2022-12-11T07:31:16.549Z,36.75
2022-12-11T07:33:43.772Z,33.55
2022-12-11T07:36:12.364Z,38.05
2022-12-11T07:38:41.981Z,33.47
2022-12-11T07:41:12.247Z,38.03
2022-12-11T07:43:39.054Z,38.95
2022-12-11T07:46:17.878Z,39.83
2022-12-11T07:48:46.602Z,36.95
2022-12-11T07:51:15.907Z,39.97
2022-12-11T07:53:50.305Z,37.60
2022-12-11T07:56:19.271Z,43.03
2022-12-11T07:58:47.421Z,47.00
2022-12-11T08:01:16.504Z,43.47
2022-12-11T08:03:46.101Z,42.38
2022-12-11T08:06:16.999Z,29.80
2022-12-11T08:08:44.083Z,47.30
2022-12-11T08:11:15.488Z,44.15
2022-12-11T08:13:45.807Z,42.97
2022-12-11T08:16:14.669Z,44.30
2022-12-11T08:18:45.782Z,48.53
2022-12-11T08:21:19.080Z,45.38
2022-12-11T08:23:46.388Z,46.80
2022-12-11T08:26:16.330Z,47.65
2022-12-11T08:28:42.940Z,45.13
2022-12-11T08:31:13.559Z,43.95
2022-12-11T08:33:44.016Z,41.08
2022-12-11T08:36:13.471Z,36.40
2022-12-11T08:38:40.689Z,33.08
2022-12-11T08:41:15.465Z,27.85
2022-12-11T08:43:42.437Z,28.70
2022-12-11T08:46:09.555Z,28.90
2022-12-11T08:48:38.064Z,31.98
2022-12-11T08:51:07.777Z,31.58
2022-12-11T08:53:34.669Z,33.30
2022-12-11T08:56:02.995Z,32.10
2022-12-11T08:58:29.686Z,32.78
2022-12-11T09:00:57.112Z,31.80
2022-12-11T09:03:24.499Z,31.85
2022-12-11T09:05:53.998Z,37.25
2022-12-11T09:08:20.676Z,30.45
2022-12-11T09:10:48.389Z,32.53
2022-12-11T09:13:15.046Z,32.33
2022-12-11T09:15:41.837Z,30.05
2022-12-11T09:18:09.266Z,28.80
2022-12-11T09:20:39.293Z,30.60
2022-12-11T09:23:05.856Z,29.40
2022-12-11T09:25:32.447Z,27.80
2022-12-11T09:27:59.042Z,27.77
2022-12-11T09:30:25.804Z,27.77
2022-12-11T09:35:24.573Z,26.42
2022-12-11T09:37:51.338Z,30.98
2022-12-11T09:40:19.456Z,22.52
2022-12-11T09:43:01.283Z,27.65
2022-12-11T09:45:28.081Z,29.33
2022-12-11T09:47:57.469Z,30.75
2022-12-11T09:50:29.614Z,26.38
2022-12-11T09:53:18.383Z,24.73
2022-12-11T09:56:12.444Z,27.23
2022-12-11T09:58:47.345Z,27.70
2022-12-11T10:01:29.557Z,27.88
2022-12-11T10:06:52.890Z,25.83
2022-12-11T10:09:38.445Z,24.83
2022-12-11T10:12:37.120Z,25.35
2022-12-11T10:15:19.214Z,23.67
2022-12-11T10:17:47.291Z,24.88
2022-12-11T10:20:26.451Z,26.30
2022-12-11T10:22:54.947Z,26.25
2022-12-11T10:25:31.428Z,26.75
2022-12-11T10:27:58.407Z,25.05
2022-12-11T10:30:32.958Z,26.58
2022-12-11T10:33:18.121Z,24.05
2022-12-11T10:35:55.916Z,25.83
2022-12-11T10:38:25.680Z,25.30
2022-12-11T10:40:56.136Z,25.17
2022-12-11T10:43:53.060Z,28.77
2022-12-11T10:46:22.841Z,26.67
2022-12-11T10:48:51.733Z,24.85
2022-12-11T10:51:19.408Z,25.77
2022-12-11T10:53:51.372Z,28.10
2022-12-11T10:56:35.737Z,25.70
2022-12-11T10:59:02.761Z,23.95
2022-12-11T11:01:32.608Z,28.38
2022-12-11T11:04:23.840Z,22.70
2022-12-11T11:07:13.580Z,24.08
2022-12-11T11:09:46.578Z,24.17
2022-12-11T11:12:25.128Z,22.98
2022-12-11T11:15:00.709Z,25.13
2022-12-11T11:17:30.743Z,25.30
2022-12-11T11:20:12.057Z,26.58
2022-12-11T11:22:50.598Z,29.05
2022-12-11T11:25:26.144Z,27.30
2022-12-11T11:28:02.349Z,30.88
2022-12-11T11:30:34.200Z,30.55
2022-12-11T11:33:12.396Z,28.80
2022-12-11T11:35:45.527Z,25.70
2022-12-11T11:38:21.322Z,30.65
2022-12-11T11:41:14.513Z,28.58
2022-12-11T11:43:49.514Z,32.53
2022-12-11T11:49:15.241Z,32.70
2022-12-11T11:51:49.806Z,29.75
2022-12-11T11:57:05.650Z,27.80
2022-12-11T11:59:47.366Z,28.50
2022-12-11T12:02:16.823Z,27.77
2022-12-11T12:04:45.178Z,27.67
2022-12-11T12:07:17.666Z,26.48
2022-12-11T12:10:18.551Z,27.88
2022-12-11T12:12:59.420Z,25.27
2022-12-11T12:15:52.429Z,22.48
2022-12-11T12:18:52.599Z,15.63
2022-12-11T12:21:37.576Z,17.40
2022-12-11T12:26:47.026Z,15.82
2022-12-11T12:29:48.775Z,12.60
2022-12-11T12:32:36.744Z,16.48
2022-12-11T12:35:16.354Z,18.25
2022-12-11T12:37:52.053Z,14.57
2022-12-11T12:40:53.910Z,14.27
2022-12-11T12:43:54.884Z,11.13
2022-12-11T12:46:40.053Z,4.55
2022-12-11T12:49:12.638Z,2.95
2022-12-11T12:51:42.491Z,2.50
2022-12-11T12:54:14.101Z,2.08
2022-12-11T12:56:44.167Z,1.00
2022-12-11T12:59:26.068Z,1.70
2022-12-11T13:01:58.694Z,1.00
2022-12-11T13:04:54.945Z,1.63
2022-12-11T13:07:26.917Z,1.35
2022-12-11T13:10:23.360Z,1.45
2022-12-11T13:12:50.604Z,1.30
2022-12-11T13:15:41.007Z,1.38
2022-12-11T13:18:40.304Z,1.35
2022-12-11T13:21:34.155Z,2.20
2022-12-11T13:24:13.095Z,1.58
2022-12-11T13:26:40.075Z,1.85
2022-12-11T13:29:27.043Z,2.90
2022-12-11T13:32:10.422Z,1.90
2022-12-11T13:34:44.216Z,3.38
2022-12-11T13:37:40.374Z,3.75
2022-12-11T13:40:43.634Z,2.70
2022-12-11T13:43:19.462Z,3.38
2022-12-11T13:45:50.388Z,2.50
2022-12-11T13:48:28.574Z,2.03
2022-12-11T13:50:56.930Z,2.63
2022-12-11T13:53:23.958Z,2.28
2022-12-11T13:56:18.607Z,1.50
2022-12-11T13:58:45.617Z,1.95
2022-12-11T14:01:25.274Z,2.97
2022-12-11T14:04:00.741Z,2.83
2022-12-11T14:06:28.996Z,2.33
2022-12-11T14:08:58.863Z,2.35
2022-12-11T14:11:31.121Z,2.50
2022-12-11T14:14:00.629Z,2.03
2022-12-11T14:16:38.608Z,1.42
2022-12-11T14:19:12.463Z,1.23
2022-12-11T14:21:39.197Z,1.40
2022-12-11T14:24:13.671Z,3.20
2022-12-11T14:26:40.412Z,2.90
2022-12-11T14:29:07.718Z,2.90
2022-12-11T14:31:40.800Z,4.55
2022-12-11T14:34:19.748Z,2.70
2022-12-11T14:36:49.146Z,4.45
2022-12-11T14:40:02.776Z,8.07
2022-12-11T14:42:34.121Z,15.73
2022-12-11T14:45:22.839Z,14.63
2022-12-11T14:47:52.498Z,16.58
2022-12-11T14:50:24.250Z,5.97
2022-12-11T14:53:04.144Z,2.95
2022-12-11T14:55:34.244Z,3.20
2022-12-11T14:58:24.830Z,3.75
2022-12-11T15:01:09.992Z,2.10
2022-12-11T15:03:38.901Z,4.07
2022-12-11T15:06:37.281Z,2.40
2022-12-11T15:09:27.055Z,3.05
2022-12-11T15:12:00.381Z,3.38
2022-12-11T15:14:27.726Z,2.83
2022-12-11T15:16:57.047Z,2.15
2022-12-11T15:19:33.265Z,2.60
2022-12-11T15:22:14.163Z,3.30
2022-12-11T15:24:46.658Z,2.55
2022-12-11T15:27:37.602Z,3.05
2022-12-11T15:30:22.105Z,3.22
2022-12-11T15:32:52.636Z,2.92
2022-12-11T15:35:29.526Z,2.72
2022-12-11T15:37:58.281Z,2.92
2022-12-11T15:40:31.158Z,1.83
2022-12-11T15:43:02.658Z,3.85
2022-12-11T15:45:29.892Z,3.00
2022-12-11T15:47:57.039Z,3.17
2022-12-11T15:50:47.287Z,4.65
2022-12-11T15:53:13.940Z,2.92
2022-12-11T15:55:45.336Z,2.63
2022-12-11T15:58:26.683Z,2.97
2022-12-11T16:01:09.616Z,4.05
2022-12-11T16:03:36.536Z,3.30
2022-12-11T16:06:06.269Z,42.78
2022-12-11T16:08:38.729Z,2.45
2022-12-11T16:11:05.534Z,2.88
2022-12-11T16:13:34.712Z,2.78
2022-12-11T16:16:03.913Z,2.92
2022-12-11T16:18:30.595Z,3.30
2022-12-11T16:20:57.590Z,3.22
2022-12-11T16:23:24.480Z,3.42
2022-12-11T16:25:51.119Z,2.72
2022-12-11T16:28:19.576Z,3.17
2022-12-11T16:30:46.614Z,2.92
2022-12-11T16:33:13.843Z,4.68
2022-12-11T16:35:41.792Z,5.22
2022-12-11T16:38:09.233Z,5.13
2022-12-11T16:40:35.843Z,3.22
2022-12-11T16:43:04.257Z,3.20
2022-12-11T16:45:30.906Z,3.97
2022-12-11T16:50:28.991Z,3.65
2022-12-11T16:52:57.482Z,2.88
2022-12-11T16:55:24.292Z,3.78
2022-12-11T16:57:51.345Z,3.58
2022-12-11T17:00:36.582Z,3.75
2022-12-11T17:03:03.469Z,4.45
2022-12-11T17:05:31.186Z,2.80
2022-12-11T17:07:57.945Z,3.78
2022-12-11T17:10:32.293Z,3.90
2022-12-11T17:12:59.191Z,3.85
2022-12-11T17:15:26.035Z,3.85
2022-12-11T17:17:52.962Z,4.38
2022-12-11T17:20:19.765Z,3.60
2022-12-11T17:22:46.454Z,3.10
2022-12-11T17:25:13.362Z,3.13
2022-12-11T17:27:40.302Z,3.42
2022-12-11T17:30:10.494Z,3.90
2022-12-11T17:32:37.134Z,2.85
2022-12-11T17:35:19.306Z,3.72
2022-12-11T17:37:46.043Z,3.38
2022-12-11T17:40:12.762Z,3.63
2022-12-11T17:42:39.426Z,4.00
2022-12-11T17:45:06.629Z,4.38
2022-12-11T17:47:33.303Z,4.03
2022-12-11T17:49:59.935Z,3.95
2022-12-11T17:52:35.641Z,4.43
2022-12-11T17:55:07.917Z,3.78
2022-12-11T17:57:37.249Z,4.38
2022-12-11T18:00:07.905Z,4.40
2022-12-11T18:02:39.131Z,3.45
2022-12-11T18:05:05.912Z,4.07
2022-12-11T18:07:32.543Z,3.50
2022-12-11T18:09:59.231Z,4.10
2022-12-11T18:12:29.982Z,5.00
2022-12-11T18:15:02.501Z,5.50
2022-12-11T18:17:29.140Z,3.60
2022-12-11T18:19:56.038Z,3.88
2022-12-11T18:22:22.718Z,4.22
2022-12-11T18:24:49.349Z,4.18
2022-12-11T18:27:16.003Z,4.32
2022-12-11T18:29:42.684Z,4.22
2022-12-11T18:32:11.884Z,5.32
2022-12-11T18:34:38.518Z,5.22
2022-12-11T18:37:05.161Z,4.28
2022-12-11T18:39:35.020Z,4.60
2022-12-11T18:42:31.140Z,3.90
2022-12-11T18:44:48.834Z,4.93
2022-12-11T18:47:15.639Z,5.13
2022-12-11T18:49:44.562Z,5.35
2022-12-11T18:52:11.252Z,4.53
2022-12-11T18:54:37.884Z,5.25
2022-12-11T18:57:04.453Z,5.00
2022-12-11T18:59:31.149Z,5.03
2022-12-11T19:01:57.802Z,5.57
2022-12-11T19:04:25.883Z,4.20
2022-12-11T19:06:52.478Z,5.38
2022-12-11T19:09:19.151Z,3.72
2022-12-11T19:11:46.002Z,5.00
2022-12-11T19:14:12.731Z,4.53
2022-12-11T19:16:44.004Z,5.45
2022-12-11T19:19:20.192Z,5.35
2022-12-11T19:21:47.803Z,3.97
2022-12-11T19:24:17.724Z,5.40
2022-12-11T19:26:45.201Z,4.47
2022-12-11T19:32:02.824Z,5.45
2022-12-11T19:34:46.398Z,4.97
2022-12-11T19:37:16.291Z,4.38
2022-12-11T19:39:42.984Z,4.70
2022-12-11T19:42:42.714Z,3.90
2022-12-11T19:45:12.228Z,5.13
2022-12-11T19:47:39.412Z,4.97
2022-12-11T19:50:06.646Z,5.15
2022-12-11T19:52:33.381Z,4.70
2022-12-11T19:55:03.208Z,4.68
2022-12-11T19:57:31.938Z,4.82
2022-12-11T20:00:00.041Z,5.45
2022-12-11T20:02:27.149Z,5.25
2022-12-11T20:04:58.402Z,4.35
2022-12-11T20:07:30.744Z,5.72
2022-12-11T20:09:57.889Z,5.97
2022-12-11T20:12:24.978Z,5.78
2022-12-11T20:14:51.822Z,4.97
2022-12-11T20:17:18.565Z,6.90
2022-12-11T20:19:45.509Z,6.75
2022-12-11T20:22:12.215Z,5.07
2022-12-11T20:24:39.895Z,6.95
2022-12-11T20:27:09.314Z,6.00
2022-12-11T20:29:35.903Z,5.28
2022-12-11T20:32:06.537Z,6.63
2022-12-11T20:34:33.331Z,5.93
2022-12-11T20:37:06.439Z,6.72
2022-12-11T20:39:33.283Z,5.35
2022-12-11T20:42:00.994Z,6.75
2022-12-11T20:44:28.708Z,7.10
2022-12-11T20:47:01.185Z,7.28
2022-12-11T20:49:28.038Z,6.75
2022-12-11T20:51:55.270Z,7.22
2022-12-11T20:54:22.518Z,8.77
2022-12-11T20:56:50.261Z,8.27
2022-12-11T20:59:18.260Z,9.40
2022-12-11T21:01:45.595Z,6.72
2022-12-11T21:04:12.543Z,8.45
2022-12-11T21:06:42.458Z,7.72
2022-12-11T21:09:13.613Z,9.18
2022-12-11T21:11:40.485Z,12.27
2022-12-11T21:14:11.541Z,9.35
2022-12-11T21:16:42.664Z,9.75
2022-12-11T21:19:15.202Z,9.15
2022-12-11T21:21:43.672Z,9.77
2022-12-11T21:24:19.478Z,10.35
2022-12-11T21:26:47.151Z,10.18
2022-12-11T21:29:14.257Z,8.88
2022-12-11T21:31:41.967Z,13.82
2022-12-11T21:34:09.401Z,10.30
2022-12-11T21:36:36.041Z,10.18
2022-12-11T21:39:03.123Z,11.43
2022-12-11T21:41:29.877Z,9.10
2022-12-11T21:46:44.155Z,9.75
2022-12-11T21:49:10.866Z,10.65
2022-12-11T21:51:43.973Z,9.70
2022-12-11T21:54:16.960Z,13.20
2022-12-11T21:56:45.918Z,8.13
2022-12-11T21:59:13.051Z,9.10
2022-12-11T22:01:42.020Z,9.13
2022-12-11T22:04:10.828Z,7.75
2022-12-11T22:06:37.492Z,8.00
2022-12-11T22:09:04.829Z,10.23
2022-12-11T22:11:33.977Z,10.45
2022-12-11T22:14:01.005Z,13.18
2022-12-11T22:16:28.198Z,9.85
2022-12-11T22:18:55.157Z,12.07
2022-12-11T22:21:21.933Z,13.77
2022-12-11T22:23:48.519Z,11.85
2022-12-11T22:26:23.629Z,10.25
2022-12-11T22:28:50.683Z,11.27
2022-12-11T22:31:23.962Z,9.90
2022-12-11T22:33:52.232Z,9.95
2022-12-11T22:36:19.951Z,9.48
2022-12-11T22:38:50.179Z,13.07
2022-12-11T22:41:24.114Z,12.10
2022-12-11T22:43:51.193Z,11.68
2022-12-11T22:46:19.976Z,10.82
2022-12-11T22:48:47.025Z,11.68
2022-12-11T22:51:13.989Z,10.38
2022-12-11T22:53:40.816Z,10.32
2022-12-11T22:56:10.488Z,9.57
2022-12-11T22:58:38.185Z,9.63
2022-12-11T23:01:15.019Z,10.70
2022-12-11T23:03:45.011Z,9.13
2022-12-11T23:06:14.378Z,11.70
2022-12-11T23:08:42.340Z,10.80
2022-12-11T23:11:13.285Z,10.02
2022-12-11T23:13:41.491Z,9.82
2022-12-11T23:16:08.714Z,10.85
2022-12-11T23:18:35.347Z,11.48
2022-12-11T23:21:02.605Z,9.18
2022-12-11T23:23:29.559Z,11.55
2022-12-11T23:25:58.041Z,9.13
2022-12-11T23:34:50.426Z,8.70
2022-12-11T23:37:17.527Z,9.18
2022-12-11T23:39:44.977Z,12.32
2022-12-11T23:42:11.643Z,14.13
2022-12-11T23:44:38.287Z,17.77
2022-12-11T23:47:11.575Z,17.88
2022-12-11T23:49:38.194Z,14.23
2022-12-11T23:52:05.150Z,13.45
2022-12-11T23:54:32.117Z,10.93
2022-12-11T23:56:58.764Z,10.75
2022-12-11T23:59:25.828Z,11.93
